EDDK/CGN METAR and TAF weather

Enter ICAO airport designator
Station Type Date Time Source
EDDK METAR 2018/06/25 01:50 UTC NOAA

EDDK 250150Z 33004KT 9999 FEW011 BKN028 13/12 Q1022 NOSIG


Station Type Date Time Source
EDDK Decoded METAR 2018/06/25 01:50 UTC NOAA

Koeln / Bonn, Germany (EDDK) 50-52N 007-10E 100M
Jun 24, 2018 - 09:50 PM EDT / 2018.06.25 0150 UTC
Wind: from the NNW (330 degrees) at 5 MPH (4 KT):0
Visibility: greater than 7 mile(s):0
Sky conditions: mostly cloudy
Temperature: 55 F (13 C)
Dew Point: 53 F (12 C)
Relative Humidity: 93%
Pressure (altimeter): 30.18 in. Hg (1022 hPa)
ob: EDDK 250150Z 33004KT 9999 FEW011 BKN028 13/12 Q1022 NOSIG
cycle: 2

Station Type Date Time Source
EDDK TAF 2018/06/24 18:27 UTC NOAA

TAF EDDK 241700Z 2418/2524 34008KT 9999 BKN040
BECMG 2500/2503 BKN012
BECMG 2507/2510 BKN030


Example: see airport list